createdAt,value
2019-02-15T00:01:08.446Z,5.39
2019-02-15T00:03:37.715Z,5.27
2019-02-15T00:06:06.797Z,5.34
2019-02-15T00:08:35.876Z,5.43
2019-02-15T00:11:04.974Z,5.34
2019-02-15T00:13:34.054Z,5.18
2019-02-15T00:16:03.145Z,5.20
2019-02-15T00:18:51.206Z,5.22
2019-02-15T00:21:22.718Z,5.21
2019-02-15T00:23:51.793Z,5.25
2019-02-15T00:26:20.897Z,5.37
2019-02-15T00:28:49.966Z,5.30
2019-02-15T00:31:21.087Z,5.36
2019-02-15T00:33:50.170Z,5.35
2019-02-15T00:36:19.286Z,5.43
2019-02-15T00:38:48.393Z,5.50
2019-02-15T00:41:17.495Z,5.48
2019-02-15T00:43:46.591Z,5.39
2019-02-15T00:46:33.197Z,5.26
2019-02-15T00:49:03.277Z,5.16
2019-02-15T00:51:52.840Z,5.10
2019-02-15T00:54:43.644Z,5.04
2019-02-15T00:57:31.721Z,4.78
2019-02-15T01:00:10.782Z,4.57
2019-02-15T01:02:56.905Z,4.45
2019-02-15T01:05:56.927Z,4.65
2019-02-15T01:08:35.349Z,4.70
2019-02-15T01:11:38.616Z,4.33
2019-02-15T01:14:07.705Z,3.82
2019-02-15T01:16:36.786Z,2.95
2019-02-15T01:19:05.881Z,2.59
2019-02-15T01:21:34.969Z,2.28
2019-02-15T01:24:04.067Z,1.93
2019-02-15T01:26:39.915Z,1.82
2019-02-15T01:29:28.549Z,1.63
2019-02-15T01:32:19.629Z,1.49
2019-02-15T01:35:06.399Z,1.36
2019-02-15T01:37:50.905Z,1.21
2019-02-15T01:40:38.959Z,1.13
2019-02-15T01:43:25.906Z,0.87
2019-02-15T01:46:07.250Z,0.78
2019-02-15T01:48:36.346Z,0.68
2019-02-15T01:51:05.416Z,0.66
2019-02-15T01:53:34.492Z,0.69
2019-02-15T01:56:03.595Z,0.71
2019-02-15T01:58:32.677Z,0.63
2019-02-15T02:01:01.844Z,0.61
2019-02-15T02:03:30.916Z,0.52
2019-02-15T02:06:00.020Z,0.45
2019-02-15T02:08:29.570Z,0.37
2019-02-15T02:10:58.664Z,0.33
2019-02-15T02:13:27.740Z,0.22
2019-02-15T02:15:56.841Z,0.18
2019-02-15T02:18:25.921Z,0.12
2019-02-15T02:20:55.025Z,0.09
2019-02-15T02:23:24.104Z,0.74
2019-02-15T02:25:53.205Z,1.14
2019-02-15T02:28:22.277Z,1.13
2019-02-15T02:30:51.353Z,1.64
2019-02-15T02:33:20.481Z,2.41
2019-02-15T02:35:49.553Z,2.59
2019-02-15T02:38:18.673Z,3.19
2019-02-15T02:40:47.754Z,3.33
2019-02-15T02:43:16.854Z,3.59
2019-02-15T02:45:45.935Z,3.64
2019-02-15T02:48:15.033Z,3.52
2019-02-15T02:50:44.123Z,3.51
2019-02-15T02:53:13.224Z,3.34
2019-02-15T02:55:42.301Z,4.03
2019-02-15T02:58:11.465Z,4.40
2019-02-15T03:00:40.540Z,4.81
2019-02-15T03:03:09.644Z,5.02
2019-02-15T03:05:38.726Z,5.21
2019-02-15T03:08:07.830Z,5.17
2019-02-15T03:10:36.908Z,4.97
2019-02-15T03:13:06.006Z,4.56
2019-02-15T03:15:35.077Z,4.00
2019-02-15T03:18:04.189Z,2.97
2019-02-15T03:20:33.275Z,2.47
2019-02-15T03:23:02.359Z,2.12
2019-02-15T03:25:31.458Z,1.82
2019-02-15T03:28:00.531Z,1.46
2019-02-15T03:30:29.630Z,1.32
2019-02-15T03:32:58.699Z,0.99
2019-02-15T03:35:27.820Z,0.91
2019-02-15T03:38:10.361Z,0.71
2019-02-15T03:40:44.569Z,0.68
2019-02-15T03:43:13.653Z,0.72
2019-02-15T03:45:43.418Z,0.76
2019-02-15T03:48:12.497Z,0.58
2019-02-15T03:50:41.597Z,0.43
2019-02-15T03:53:10.676Z,0.39
2019-02-15T03:55:39.777Z,0.41
2019-02-15T03:58:08.853Z,0.38
2019-02-15T04:00:38.008Z,0.47
2019-02-15T04:03:07.078Z,0.38
2019-02-15T04:05:36.175Z,0.20
2019-02-15T04:08:05.281Z,0.14
2019-02-15T04:10:34.442Z,-0.01
2019-02-15T04:13:03.518Z,0.03
2019-02-15T04:15:32.627Z,-0.07
2019-02-15T04:18:01.708Z,-0.04
2019-02-15T04:20:30.807Z,-0.02
2019-02-15T04:22:59.889Z,-0.10
2019-02-15T04:25:28.992Z,-0.18
2019-02-15T04:27:58.077Z,-0.16
2019-02-15T04:30:27.159Z,-0.20
2019-02-15T04:32:56.263Z,-0.28
2019-02-15T04:35:25.353Z,-0.28
2019-02-15T04:37:54.479Z,-0.27
2019-02-15T04:40:23.565Z,-0.33
2019-02-15T04:42:52.667Z,-0.13
2019-02-15T04:45:21.743Z,-0.20
2019-02-15T04:47:50.847Z,-0.19
2019-02-15T04:50:19.984Z,-0.11
2019-02-15T04:52:49.091Z,0.00
2019-02-15T04:55:18.166Z,-0.18
2019-02-15T04:57:47.266Z,-0.16
2019-02-15T05:00:16.338Z,-0.28
2019-02-15T05:02:45.442Z,-0.35
2019-02-15T05:05:16.893Z,-0.37
2019-02-15T05:07:45.990Z,-0.43
2019-02-15T05:10:15.092Z,-0.38
2019-02-15T05:12:44.172Z,-0.48
2019-02-15T05:15:13.264Z,-0.38
2019-02-15T05:17:42.336Z,-0.40
2019-02-15T05:20:11.446Z,-0.50
2019-02-15T05:22:40.531Z,-0.31
2019-02-15T05:25:09.643Z,-0.28
2019-02-15T05:27:38.738Z,-0.40
2019-02-15T05:30:07.906Z,-0.26
2019-02-15T05:32:37.001Z,-0.31
2019-02-15T05:35:06.491Z,-0.28
2019-02-15T05:37:35.640Z,0.04
2019-02-15T05:40:04.923Z,-0.09
2019-02-15T05:42:34.003Z,0.43
2019-02-15T05:45:04.435Z,0.41
2019-02-15T05:47:33.790Z,0.47
2019-02-15T05:50:02.901Z,0.63
2019-02-15T05:52:31.983Z,0.69
2019-02-15T05:55:01.076Z,1.14
2019-02-15T05:57:30.158Z,1.34
2019-02-15T05:59:59.254Z,2.22
2019-02-15T06:02:28.355Z,2.01
2019-02-15T06:04:57.434Z,2.20
2019-02-15T06:07:26.507Z,2.46
2019-02-15T06:09:55.621Z,2.70
2019-02-15T06:12:24.704Z,2.94
2019-02-15T06:14:53.777Z,3.04
2019-02-15T06:17:22.871Z,3.26
2019-02-15T06:19:51.960Z,3.50
2019-02-15T06:22:21.061Z,3.70
2019-02-15T06:24:50.143Z,3.99
2019-02-15T06:27:19.283Z,3.79
2019-02-15T06:29:48.312Z,4.08
2019-02-15T06:32:17.405Z,4.33
2019-02-15T06:34:46.498Z,4.23
2019-02-15T06:37:15.612Z,4.26
2019-02-15T06:39:44.684Z,4.52
2019-02-15T06:42:13.780Z,4.53
2019-02-15T06:44:42.857Z,4.77
2019-02-15T06:47:11.955Z,4.80
2019-02-15T06:49:41.031Z,4.86
2019-02-15T06:52:10.121Z,4.81
2019-02-15T06:54:39.195Z,5.02
2019-02-15T06:57:08.295Z,5.14
2019-02-15T07:00:05.551Z,5.13
2019-02-15T07:02:39.598Z,5.08
2019-02-15T07:05:19.000Z,5.16
2019-02-15T07:07:48.100Z,5.22
2019-02-15T07:10:17.179Z,5.19
2019-02-15T07:12:46.274Z,5.39
2019-02-15T07:15:15.350Z,5.37
2019-02-15T07:17:44.422Z,5.44
2019-02-15T07:20:13.521Z,5.41
2019-02-15T07:22:42.601Z,5.38
2019-02-15T07:25:11.727Z,5.49
2019-02-15T07:27:40.796Z,5.59
2019-02-15T07:30:11.493Z,5.65
2019-02-15T07:32:40.565Z,5.77
2019-02-15T07:35:09.694Z,5.73
2019-02-15T07:37:38.789Z,5.82
2019-02-15T07:40:08.467Z,5.76
2019-02-15T07:42:37.542Z,5.89
2019-02-15T07:45:07.443Z,6.00
2019-02-15T07:47:36.521Z,8.30
2019-02-15T07:50:06.887Z,10.63
2019-02-15T07:52:35.964Z,11.07
2019-02-15T07:55:05.624Z,10.74
2019-02-15T07:57:34.693Z,9.62
2019-02-15T08:00:03.893Z,9.12
2019-02-15T08:02:32.962Z,8.31
2019-02-15T08:05:02.113Z,7.81
2019-02-15T08:07:31.205Z,7.89
2019-02-15T08:10:00.283Z,8.44
2019-02-15T08:12:29.377Z,8.61
2019-02-15T08:14:58.448Z,9.47
2019-02-15T08:17:27.545Z,9.62
2019-02-15T08:19:56.622Z,9.48
2019-02-15T08:22:25.724Z,8.72
2019-02-15T08:24:54.802Z,9.17
2019-02-15T08:27:23.908Z,9.25
2019-02-15T08:29:52.982Z,9.01
2019-02-15T08:32:22.083Z,9.48
2019-02-15T08:34:51.162Z,9.41
2019-02-15T08:37:20.281Z,9.67
2019-02-15T08:39:49.360Z,9.97
2019-02-15T08:42:18.468Z,11.77
2019-02-15T08:44:47.555Z,13.93
2019-02-15T08:47:16.668Z,16.64
2019-02-15T08:49:45.767Z,18.06
2019-02-15T08:52:14.863Z,19.32
2019-02-15T08:54:43.951Z,22.23
2019-02-15T08:57:13.067Z,22.43
2019-02-15T08:59:42.155Z,24.24
2019-02-15T09:02:29.508Z,24.72
2019-02-15T09:04:58.596Z,23.70
2019-02-15T09:07:27.679Z,25.91
2019-02-15T09:09:56.790Z,26.11
2019-02-15T09:12:25.884Z,25.97
2019-02-15T09:14:54.985Z,24.89
2019-02-15T09:17:24.063Z,26.55
2019-02-15T09:19:53.177Z,30.49
2019-02-15T09:22:22.258Z,28.46
2019-02-15T09:24:51.357Z,26.24
2019-02-15T09:27:31.819Z,25.56
2019-02-15T09:30:00.919Z,24.91
2019-02-15T09:32:29.994Z,26.14
2019-02-15T09:34:59.098Z,25.73
2019-02-15T09:37:28.207Z,26.87
2019-02-15T09:39:57.401Z,25.56
2019-02-15T09:42:26.485Z,28.08
2019-02-15T09:44:55.592Z,29.40
2019-02-15T09:47:24.671Z,27.59
2019-02-15T09:49:53.777Z,25.39
2019-02-15T09:52:22.856Z,26.23
2019-02-15T09:54:51.954Z,28.61
2019-02-15T09:57:21.044Z,27.97
2019-02-15T09:59:50.148Z,28.13
2019-02-15T10:02:19.226Z,26.46
2019-02-15T10:04:48.340Z,28.62
2019-02-15T10:07:17.444Z,28.26
2019-02-15T10:09:46.532Z,28.03
2019-02-15T10:12:15.630Z,29.39
2019-02-15T10:14:44.729Z,28.51
2019-02-15T10:17:13.811Z,29.41
2019-02-15T10:19:42.889Z,27.92
2019-02-15T10:22:11.995Z,28.38
2019-02-15T10:24:41.090Z,28.59
2019-02-15T10:27:10.181Z,28.37
2019-02-15T10:29:39.261Z,29.00
2019-02-15T10:32:08.370Z,27.92
2019-02-15T10:34:37.529Z,29.62
2019-02-15T10:37:06.634Z,30.40
2019-02-15T10:39:35.743Z,29.19
2019-02-15T10:42:04.847Z,31.79
2019-02-15T10:44:33.931Z,30.00
2019-02-15T10:47:03.051Z,30.56
2019-02-15T10:49:32.138Z,32.72
2019-02-15T10:52:01.252Z,31.34
2019-02-15T10:54:30.335Z,32.33
2019-02-15T10:56:59.448Z,30.32
2019-02-15T10:59:28.541Z,31.10
2019-02-15T11:01:57.636Z,30.19
2019-02-15T11:04:26.718Z,29.32
2019-02-15T11:06:55.832Z,30.22
2019-02-15T11:09:24.914Z,30.04
2019-02-15T11:11:54.025Z,31.57
2019-02-15T11:14:23.104Z,31.12
2019-02-15T11:16:52.192Z,29.91
2019-02-15T11:19:21.300Z,30.79
2019-02-15T11:21:50.383Z,30.43
2019-02-15T11:24:19.488Z,29.71
2019-02-15T11:26:48.580Z,30.98
2019-02-15T11:29:17.688Z,32.36
2019-02-15T11:31:46.769Z,31.51
2019-02-15T11:34:15.885Z,30.32
2019-02-15T11:36:44.976Z,32.45
2019-02-15T11:39:14.124Z,33.57
2019-02-15T11:41:43.214Z,33.40
2019-02-15T11:44:12.324Z,32.89
2019-02-15T11:46:41.406Z,30.98
2019-02-15T11:49:10.516Z,32.13
2019-02-15T11:51:39.604Z,33.10
2019-02-15T11:54:08.712Z,30.24
2019-02-15T11:56:37.805Z,30.71
2019-02-15T11:59:06.912Z,33.60
2019-02-15T12:01:35.989Z,35.37
2019-02-15T12:04:05.094Z,33.51
2019-02-15T12:06:34.183Z,31.56
2019-02-15T12:09:04.326Z,33.51
2019-02-15T12:11:33.401Z,31.86
2019-02-15T12:14:02.512Z,31.75
2019-02-15T12:16:31.595Z,31.95
2019-02-15T12:19:00.704Z,32.69
2019-02-15T12:21:29.795Z,32.32
2019-02-15T12:23:58.911Z,30.82
2019-02-15T12:26:27.991Z,31.01
2019-02-15T12:28:57.069Z,31.43
2019-02-15T12:31:26.178Z,29.90
2019-02-15T12:33:55.262Z,30.57
2019-02-15T12:36:24.375Z,30.71
2019-02-15T12:38:53.488Z,31.78
2019-02-15T12:41:22.596Z,30.11
2019-02-15T12:43:51.679Z,31.58
2019-02-15T12:46:20.789Z,29.92
2019-02-15T12:48:49.870Z,29.77
2019-02-15T12:51:18.971Z,29.46
2019-02-15T12:53:48.079Z,31.30
2019-02-15T12:56:17.157Z,32.10
2019-02-15T12:58:46.241Z,30.76
2019-02-15T13:01:15.351Z,31.07
2019-02-15T13:03:44.439Z,32.09
2019-02-15T13:06:13.539Z,31.45
2019-02-15T13:08:42.619Z,32.59
2019-02-15T13:11:11.722Z,30.88
2019-02-15T13:13:40.810Z,30.79
2019-02-15T13:16:09.912Z,30.87
2019-02-15T13:18:38.993Z,30.46
2019-02-15T13:21:08.094Z,29.88
2019-02-15T13:23:37.182Z,32.11
2019-02-15T13:26:08.549Z,30.12
2019-02-15T13:28:37.127Z,29.06
2019-02-15T13:31:06.237Z,28.85
2019-02-15T13:33:35.326Z,30.53
2019-02-15T13:36:04.520Z,31.78
2019-02-15T13:38:33.648Z,30.29
2019-02-15T13:41:02.753Z,30.15
2019-02-15T13:43:31.941Z,30.20
2019-02-15T13:46:01.021Z,30.27
2019-02-15T13:48:30.157Z,29.69
2019-02-15T13:50:59.215Z,30.27
2019-02-15T13:53:28.316Z,29.28
2019-02-15T13:55:57.392Z,30.27
2019-02-15T13:58:26.507Z,30.49
2019-02-15T14:00:55.584Z,29.03
2019-02-15T14:03:24.686Z,29.35
2019-02-15T14:05:53.767Z,30.19
2019-02-15T14:08:22.875Z,29.08
2019-02-15T14:10:51.957Z,29.22
2019-02-15T14:13:21.071Z,27.91
2019-02-15T14:15:50.155Z,27.66
2019-02-15T14:18:19.260Z,28.19
2019-02-15T14:20:48.353Z,27.39
2019-02-15T14:23:17.482Z,27.57
2019-02-15T14:25:46.562Z,27.18
2019-02-15T14:28:15.644Z,26.07
2019-02-15T14:30:44.745Z,26.12
2019-02-15T14:33:13.827Z,26.01
2019-02-15T14:35:42.928Z,26.30
2019-02-15T14:38:12.041Z,25.46
2019-02-15T14:40:41.209Z,26.37
2019-02-15T14:43:10.322Z,26.87
2019-02-15T14:45:39.427Z,26.14
2019-02-15T14:48:08.510Z,24.43
2019-02-15T14:50:37.618Z,26.41
2019-02-15T14:53:06.715Z,26.36
2019-02-15T14:55:35.819Z,26.95
2019-02-15T14:58:04.903Z,26.56
2019-02-15T15:00:34.015Z,25.79
2019-02-15T15:03:03.097Z,23.97
2019-02-15T15:05:32.203Z,25.22
2019-02-15T15:08:01.286Z,25.44
2019-02-15T15:10:30.424Z,24.64
2019-02-15T15:12:59.560Z,24.13
2019-02-15T15:15:28.665Z,23.79
2019-02-15T15:18:02.476Z,24.21
2019-02-15T15:20:28.577Z,24.69
2019-02-15T15:22:57.664Z,23.91
2019-02-15T15:25:26.768Z,24.61
2019-02-15T15:27:55.882Z,23.13
2019-02-15T15:30:24.984Z,22.84
2019-02-15T15:32:54.067Z,21.32
2019-02-15T15:35:23.166Z,21.84
2019-02-15T15:37:52.266Z,21.32
2019-02-15T15:40:21.375Z,21.27
2019-02-15T15:42:50.474Z,21.25
2019-02-15T15:45:19.555Z,20.67
2019-02-15T15:47:48.659Z,19.42
2019-02-15T15:50:17.748Z,18.83
2019-02-15T15:52:46.867Z,19.15
2019-02-15T15:55:17.675Z,18.38
2019-02-15T15:57:47.048Z,17.67
2019-02-15T16:00:16.235Z,15.92
2019-02-15T16:02:45.348Z,14.31
2019-02-15T16:05:14.475Z,13.62
2019-02-15T16:07:44.065Z,13.11
2019-02-15T16:10:13.469Z,12.68
2019-02-15T16:12:42.627Z,12.47
2019-02-15T16:15:11.978Z,12.12
2019-02-15T16:17:41.090Z,11.91
2019-02-15T16:20:10.497Z,11.70
2019-02-15T16:22:39.618Z,11.58
2019-02-15T16:25:08.710Z,11.41
2019-02-15T16:27:37.818Z,11.26
2019-02-15T16:30:07.535Z,11.12
2019-02-15T16:32:36.620Z,10.99
2019-02-15T16:35:06.204Z,10.93
2019-02-15T16:37:35.299Z,10.88
2019-02-15T16:40:04.614Z,10.81
2019-02-15T16:42:33.777Z,10.68
2019-02-15T16:45:02.884Z,10.56
2019-02-15T16:47:31.987Z,10.48
2019-02-15T16:50:01.100Z,10.43
2019-02-15T16:52:30.183Z,10.35
2019-02-15T16:54:59.282Z,10.15
2019-02-15T16:57:28.372Z,10.05
2019-02-15T16:59:57.491Z,9.96
2019-02-15T17:02:26.636Z,9.97
2019-02-15T17:04:55.730Z,9.84
2019-02-15T17:07:24.886Z,9.78
2019-02-15T17:09:53.986Z,9.75
2019-02-15T17:12:23.064Z,9.69
2019-02-15T17:14:52.171Z,9.62
2019-02-15T17:17:21.576Z,9.62
2019-02-15T17:19:50.678Z,9.60
2019-02-15T17:22:19.759Z,9.58
2019-02-15T17:24:48.861Z,9.55
2019-02-15T17:27:17.943Z,9.50
2019-02-15T17:29:47.039Z,9.51
2019-02-15T17:32:16.136Z,9.43
2019-02-15T17:34:45.238Z,9.39
2019-02-15T17:37:14.316Z,9.31
2019-02-15T17:39:43.421Z,9.29
2019-02-15T17:42:12.533Z,9.36
2019-02-15T17:44:41.750Z,9.23
2019-02-15T17:47:10.850Z,9.20
2019-02-15T17:49:40.900Z,9.13
2019-02-15T17:52:10.002Z,9.31
2019-02-15T17:54:40.076Z,9.17
2019-02-15T17:57:09.184Z,9.13
2019-02-15T17:59:38.517Z,9.04
2019-02-15T18:02:09.358Z,9.03
2019-02-15T18:04:38.459Z,9.00
2019-02-15T18:07:08.649Z,9.07
2019-02-15T18:09:37.990Z,9.07
2019-02-15T18:12:07.088Z,9.00
2019-02-15T18:14:36.158Z,8.94
2019-02-15T18:17:05.255Z,8.99
2019-02-15T18:19:34.330Z,9.01
2019-02-15T18:22:04.193Z,9.05
2019-02-15T18:24:34.173Z,8.90
2019-02-15T18:27:04.799Z,8.98
2019-02-15T18:29:33.875Z,9.09
2019-02-15T18:32:03.747Z,8.94
2019-02-15T18:34:32.834Z,9.05
2019-02-15T18:37:01.946Z,9.05
2019-02-15T18:39:31.053Z,9.01
2019-02-15T18:42:00.129Z,9.04
2019-02-15T18:44:29.224Z,8.99
2019-02-15T18:46:58.306Z,9.00
2019-02-15T18:49:27.403Z,8.99
2019-02-15T18:51:56.473Z,9.07
2019-02-15T18:54:25.575Z,8.90
2019-02-15T18:56:54.661Z,8.85
2019-02-15T18:59:23.752Z,8.89
2019-02-15T19:01:52.831Z,9.06
2019-02-15T19:04:21.942Z,9.15
2019-02-15T19:06:51.021Z,9.26
2019-02-15T19:09:20.125Z,9.33
2019-02-15T19:11:49.205Z,9.27
2019-02-15T19:14:18.314Z,9.18
2019-02-15T19:16:48.298Z,9.22
2019-02-15T19:19:17.474Z,9.19
2019-02-15T19:21:47.677Z,9.23
2019-02-15T19:24:17.228Z,9.23
2019-02-15T19:26:46.310Z,9.12
2019-02-15T19:29:15.416Z,8.99
2019-02-15T19:31:44.494Z,8.98
2019-02-15T19:34:13.595Z,8.85
2019-02-15T19:36:42.675Z,8.82
2019-02-15T19:39:11.781Z,8.85
2019-02-15T19:41:40.882Z,8.90
2019-02-15T19:44:09.956Z,8.92
2019-02-15T19:46:39.058Z,8.95
2019-02-15T19:49:08.143Z,9.01
2019-02-15T19:51:37.247Z,8.96
2019-02-15T19:54:06.325Z,8.94
2019-02-15T19:56:35.422Z,8.83
2019-02-15T19:59:04.507Z,8.95
2019-02-15T20:01:33.608Z,8.91
2019-02-15T20:04:02.699Z,8.83
2019-02-15T20:06:31.803Z,8.89
2019-02-15T20:09:00.875Z,8.92
2019-02-15T20:11:29.970Z,8.78
2019-02-15T20:14:00.129Z,8.85
2019-02-15T20:16:29.331Z,8.99
2019-02-15T20:18:58.407Z,8.96
2019-02-15T20:21:27.510Z,8.99
2019-02-15T20:23:56.595Z,9.03
2019-02-15T20:26:25.697Z,8.96
2019-02-15T20:28:54.794Z,9.00
2019-02-15T20:31:23.906Z,9.03
2019-02-15T20:33:52.980Z,8.99
2019-02-15T20:36:22.084Z,8.99
2019-02-15T20:38:51.204Z,8.92
2019-02-15T20:41:20.303Z,8.96
2019-02-15T20:43:49.382Z,8.94
2019-02-15T20:46:18.477Z,8.85
2019-02-15T20:48:47.571Z,8.89
2019-02-15T20:51:16.672Z,8.74
2019-02-15T20:53:45.757Z,8.79
2019-02-15T20:56:14.842Z,8.92
2019-02-15T20:58:43.930Z,8.79
2019-02-15T21:01:13.014Z,8.72
2019-02-15T21:03:42.118Z,8.71
2019-02-15T21:06:11.200Z,8.79
2019-02-15T21:08:40.307Z,8.78
2019-02-15T21:11:09.418Z,8.71
2019-02-15T21:13:38.486Z,8.56
2019-02-15T21:16:07.560Z,8.75
2019-02-15T21:18:36.679Z,8.57
2019-02-15T21:21:05.739Z,8.21
2019-02-15T21:23:34.836Z,8.00
2019-02-15T21:26:03.914Z,7.55
2019-02-15T21:28:33.020Z,7.37
2019-02-15T21:31:02.098Z,6.97
2019-02-15T21:33:31.198Z,6.95
2019-02-15T21:36:00.278Z,6.48
2019-02-15T21:38:29.391Z,6.13
2019-02-15T21:40:58.490Z,5.86
2019-02-15T21:43:27.591Z,5.47
2019-02-15T21:45:56.667Z,5.20
2019-02-15T21:48:25.775Z,5.00
2019-02-15T21:50:54.841Z,4.85
2019-02-15T21:53:23.919Z,4.60
2019-02-15T21:55:53.042Z,4.65
2019-02-15T21:58:22.155Z,4.39
2019-02-15T22:00:51.297Z,4.25
2019-02-15T22:03:20.374Z,3.97
2019-02-15T22:05:49.480Z,3.89
2019-02-15T22:08:18.559Z,3.86
2019-02-15T22:10:47.658Z,3.70
2019-02-15T22:13:16.734Z,3.50
2019-02-15T22:15:45.879Z,3.64
2019-02-15T22:18:14.935Z,3.69
2019-02-15T22:20:44.033Z,3.72
2019-02-15T22:23:13.110Z,3.79
2019-02-15T22:25:42.221Z,3.87
2019-02-15T22:28:11.298Z,3.66
2019-02-15T22:30:40.401Z,3.46
2019-02-15T22:33:09.702Z,3.56
2019-02-15T22:35:38.856Z,3.49
2019-02-15T22:38:08.119Z,3.55
2019-02-15T22:40:39.041Z,4.72
2019-02-15T22:43:14.502Z,5.56
2019-02-15T22:45:43.804Z,5.81
2019-02-15T22:48:13.007Z,5.42
2019-02-15T22:50:42.119Z,4.33
2019-02-15T22:53:11.189Z,3.95
2019-02-15T22:55:40.292Z,4.60
2019-02-15T22:58:09.436Z,4.36
2019-02-15T23:00:51.020Z,4.77
2019-02-15T23:03:22.377Z,4.55
2019-02-15T23:05:52.693Z,5.00
2019-02-15T23:08:21.772Z,5.72
2019-02-15T23:10:50.964Z,6.10
2019-02-15T23:13:20.037Z,5.95
2019-02-15T23:15:49.137Z,5.28
2019-02-15T23:18:18.974Z,4.88
2019-02-15T23:20:48.293Z,4.79
2019-02-15T23:23:17.358Z,4.59
2019-02-15T23:25:46.433Z,4.29
2019-02-15T23:28:15.529Z,4.45
2019-02-15T23:30:44.601Z,4.65
2019-02-15T23:33:13.700Z,4.51
2019-02-15T23:35:42.777Z,4.25
2019-02-15T23:38:11.883Z,3.94
2019-02-15T23:40:40.995Z,4.12
2019-02-15T23:43:10.095Z,3.73
2019-02-15T23:45:39.192Z,3.84
2019-02-15T23:48:08.289Z,4.18
2019-02-15T23:50:37.370Z,3.98
2019-02-15T23:53:06.472Z,3.42
2019-02-15T23:55:35.562Z,3.25
2019-02-15T23:58:04.659Z,2.92
